sensor_id;sensor_type;location;lat;lon;timestamp;pressure;altitude;pressure_sealevel;temperature;humidity
5413;BME280;2729;50.056;8.678;2023-06-10T00:01:50;99996.94;;;20.62;100.00
5413;BME280;2729;50.056;8.678;2023-06-10T00:04:16;99992.06;;;20.56;100.00
5413;BME280;2729;50.056;8.678;2023-06-10T00:06:45;99984.56;;;20.50;100.00
5413;BME280;2729;50.056;8.678;2023-06-10T00:09:15;99986.44;;;20.22;100.00
5413;BME280;2729;50.056;8.678;2023-06-10T00:11:42;99990.28;;;20.44;100.00
5413;BME280;2729;50.056;8.678;2023-06-10T00:14:08;99990.81;;;20.49;100.00
5413;BME280;2729;50.056;8.678;2023-06-10T00:16:35;99982.53;;;20.41;100.00
5413;BME280;2729;50.056;8.678;2023-06-10T00:19:03;99987.84;;;20.41;100.00
5413;BME280;2729;50.056;8.678;2023-06-10T00:21:31;99989.19;;;20.34;100.00
5413;BME280;2729;50.056;8.678;2023-06-10T00:24:06;99985.91;;;20.17;100.00
5413;BME280;2729;50.056;8.678;2023-06-10T00:26:32;99985.81;;;20.19;100.00
5413;BME280;2729;50.056;8.678;2023-06-10T00:28:59;99982.94;;;20.22;100.00
5413;BME280;2729;50.056;8.678;2023-06-10T00:31:27;99990.47;;;20.15;100.00
5413;BME280;2729;50.056;8.678;2023-06-10T00:33:56;99991.63;;;20.11;100.00
5413;BME280;2729;50.056;8.678;2023-06-10T00:36:24;99979.44;;;20.09;100.00
5413;BME280;2729;50.056;8.678;2023-06-10T00:38:53;99984.22;;;19.91;100.00
5413;BME280;2729;50.056;8.678;2023-06-10T00:41:19;99989.19;;;19.96;100.00
5413;BME280;2729;50.056;8.678;2023-06-10T00:43:45;99990.34;;;19.91;100.00
5413;BME280;2729;50.056;8.678;2023-06-10T00:46:12;99988.13;;;19.85;100.00
5413;BME280;2729;50.056;8.678;2023-06-10T00:48:40;99986.22;;;19.87;100.00
5413;BME280;2729;50.056;8.678;2023-06-10T00:51:07;99981.53;;;19.78;100.00
5413;BME280;2729;50.056;8.678;2023-06-10T00:53:40;99982.41;;;19.79;100.00
5413;BME280;2729;50.056;8.678;2023-06-10T00:56:06;99989.06;;;19.72;100.00
5413;BME280;2729;50.056;8.678;2023-06-10T00:58:32;99986.41;;;19.72;100.00
5413;BME280;2729;50.056;8.678;2023-06-10T01:00:58;99987.13;;;19.61;100.00
5413;BME280;2729;50.056;8.678;2023-06-10T01:03:27;99991.69;;;19.59;100.00
5413;BME280;2729;50.056;8.678;2023-06-10T01:06:08;99995.91;;;19.62;100.00
5413;BME280;2729;50.056;8.678;2023-06-10T01:08:46;99995.28;;;19.58;100.00
5413;BME280;2729;50.056;8.678;2023-06-10T01:11:21;100000.41;;;19.47;100.00
5413;BME280;2729;50.056;8.678;2023-06-10T01:13:50;99994.16;;;19.48;100.00
5413;BME280;2729;50.056;8.678;2023-06-10T01:16:18;99997.09;;;19.43;100.00
5413;BME280;2729;50.056;8.678;2023-06-10T01:18:45;99995.31;;;19.44;100.00
5413;BME280;2729;50.056;8.678;2023-06-10T01:21:20;99993.09;;;19.50;100.00
5413;BME280;2729;50.056;8.678;2023-06-10T01:23:47;99997.00;;;19.45;100.00
5413;BME280;2729;50.056;8.678;2023-06-10T01:26:14;99996.00;;;19.33;100.00
5413;BME280;2729;50.056;8.678;2023-06-10T01:28:50;99997.38;;;19.26;100.00
5413;BME280;2729;50.056;8.678;2023-06-10T01:31:38;100004.56;;;19.24;100.00
5413;BME280;2729;50.056;8.678;2023-06-10T01:34:10;99996.38;;;19.14;100.00
5413;BME280;2729;50.056;8.678;2023-06-10T01:36:38;100001.75;;;19.13;100.00
5413;BME280;2729;50.056;8.678;2023-06-10T01:39:04;100004.03;;;19.05;100.00
5413;BME280;2729;50.056;8.678;2023-06-10T01:41:32;100005.69;;;18.93;100.00
5413;BME280;2729;50.056;8.678;2023-06-10T01:43:58;100012.41;;;18.84;100.00
5413;BME280;2729;50.056;8.678;2023-06-10T01:46:24;100003.88;;;18.93;100.00
5413;BME280;2729;50.056;8.678;2023-06-10T01:48:50;100005.41;;;18.83;100.00
5413;BME280;2729;50.056;8.678;2023-06-10T01:51:16;100005.88;;;18.90;100.00
5413;BME280;2729;50.056;8.678;2023-06-10T01:53:42;100001.06;;;18.82;100.00
5413;BME280;2729;50.056;8.678;2023-06-10T01:56:08;100006.75;;;18.76;100.00
5413;BME280;2729;50.056;8.678;2023-06-10T01:58:34;100001.75;;;18.72;100.00
5413;BME280;2729;50.056;8.678;2023-06-10T02:01:00;99999.38;;;18.81;100.00
5413;BME280;2729;50.056;8.678;2023-06-10T02:03:26;100002.78;;;18.69;100.00
5413;BME280;2729;50.056;8.678;2023-06-10T02:05:52;100001.00;;;18.70;100.00
5413;BME280;2729;50.056;8.678;2023-06-10T02:08:18;100008.19;;;18.68;100.00
5413;BME280;2729;50.056;8.678;2023-06-10T02:10:44;100009.03;;;18.68;100.00
5413;BME280;2729;50.056;8.678;2023-06-10T02:13:10;100007.97;;;18.71;100.00
5413;BME280;2729;50.056;8.678;2023-06-10T02:15:36;100006.09;;;18.73;100.00
5413;BME280;2729;50.056;8.678;2023-06-10T02:18:04;100007.53;;;18.64;100.00
5413;BME280;2729;50.056;8.678;2023-06-10T02:20:30;100010.34;;;18.61;100.00
5413;BME280;2729;50.056;8.678;2023-06-10T02:22:58;100003.16;;;18.49;100.00
5413;BME280;2729;50.056;8.678;2023-06-10T02:25:24;100001.44;;;18.48;100.00
5413;BME280;2729;50.056;8.678;2023-06-10T02:27:50;100003.16;;;18.35;100.00
5413;BME280;2729;50.056;8.678;2023-06-10T02:30:16;100008.91;;;18.27;100.00
5413;BME280;2729;50.056;8.678;2023-06-10T02:32:42;100000.97;;;18.27;100.00
5413;BME280;2729;50.056;8.678;2023-06-10T02:35:16;100006.03;;;18.16;100.00
5413;BME280;2729;50.056;8.678;2023-06-10T02:37:43;100001.41;;;18.19;100.00
5413;BME280;2729;50.056;8.678;2023-06-10T02:40:09;100004.66;;;18.24;100.00
5413;BME280;2729;50.056;8.678;2023-06-10T02:42:37;100009.22;;;18.07;100.00
5413;BME280;2729;50.056;8.678;2023-06-10T02:45:04;100014.31;;;18.10;100.00
5413;BME280;2729;50.056;8.678;2023-06-10T02:47:38;100006.28;;;17.97;100.00
5413;BME280;2729;50.056;8.678;2023-06-10T02:50:07;100001.66;;;18.00;100.00
5413;BME280;2729;50.056;8.678;2023-06-10T02:52:38;100017.53;;;18.00;100.00
5413;BME280;2729;50.056;8.678;2023-06-10T02:55:05;100010.06;;;18.07;100.00
5413;BME280;2729;50.056;8.678;2023-06-10T02:57:32;100020.81;;;18.04;100.00
5413;BME280;2729;50.056;8.678;2023-06-10T03:00:00;100015.19;;;18.10;100.00
5413;BME280;2729;50.056;8.678;2023-06-10T03:02:28;100011.47;;;17.98;100.00
5413;BME280;2729;50.056;8.678;2023-06-10T03:04:55;100015.34;;;17.93;100.00
5413;BME280;2729;50.056;8.678;2023-06-10T03:07:21;100016.25;;;17.78;100.00
5413;BME280;2729;50.056;8.678;2023-06-10T03:09:49;100020.00;;;17.74;100.00
5413;BME280;2729;50.056;8.678;2023-06-10T03:12:15;100015.75;;;17.71;100.00
5413;BME280;2729;50.056;8.678;2023-06-10T03:14:45;100022.91;;;17.69;100.00
5413;BME280;2729;50.056;8.678;2023-06-10T03:17:11;100021.22;;;17.68;100.00
5413;BME280;2729;50.056;8.678;2023-06-10T03:19:40;100027.06;;;17.73;100.00
5413;BME280;2729;50.056;8.678;2023-06-10T03:22:14;100032.75;;;17.81;100.00
5413;BME280;2729;50.056;8.678;2023-06-10T03:24:46;100029.09;;;17.84;100.00
5413;BME280;2729;50.056;8.678;2023-06-10T03:27:16;100036.16;;;17.83;100.00
5413;BME280;2729;50.056;8.678;2023-06-10T03:29:44;100036.44;;;17.63;100.00
5413;BME280;2729;50.056;8.678;2023-06-10T03:32:10;100035.84;;;17.74;100.00
5413;BME280;2729;50.056;8.678;2023-06-10T03:34:38;100037.00;;;17.84;100.00
5413;BME280;2729;50.056;8.678;2023-06-10T03:37:04;100041.13;;;17.74;100.00
5413;BME280;2729;50.056;8.678;2023-06-10T03:39:32;100034.63;;;17.63;100.00
5413;BME280;2729;50.056;8.678;2023-06-10T03:41:59;100037.72;;;17.72;100.00
5413;BME280;2729;50.056;8.678;2023-06-10T03:44:26;100037.13;;;17.66;100.00
5413;BME280;2729;50.056;8.678;2023-06-10T03:46:52;100035.34;;;17.67;100.00
5413;BME280;2729;50.056;8.678;2023-06-10T03:49:18;100034.31;;;17.70;100.00
5413;BME280;2729;50.056;8.678;2023-06-10T03:51:47;100032.00;;;17.63;100.00
5413;BME280;2729;50.056;8.678;2023-06-10T03:54:14;100036.19;;;17.67;100.00
5413;BME280;2729;50.056;8.678;2023-06-10T03:56:40;100043.84;;;17.72;100.00
5413;BME280;2729;50.056;8.678;2023-06-10T03:59:06;100042.81;;;17.75;100.00
5413;BME280;2729;50.056;8.678;2023-06-10T04:01:33;100044.59;;;17.74;100.00
5413;BME280;2729;50.056;8.678;2023-06-10T04:04:00;100040.41;;;17.86;100.00
5413;BME280;2729;50.056;8.678;2023-06-10T04:06:27;100042.94;;;17.87;100.00
5413;BME280;2729;50.056;8.678;2023-06-10T04:08:55;100043.81;;;17.88;100.00
5413;BME280;2729;50.056;8.678;2023-06-10T04:11:25;100047.56;;;17.84;100.00
5413;BME280;2729;50.056;8.678;2023-06-10T04:13:51;100040.41;;;17.86;100.00
5413;BME280;2729;50.056;8.678;2023-06-10T04:16:18;100050.44;;;17.95;100.00
5413;BME280;2729;50.056;8.678;2023-06-10T04:18:44;100048.84;;;18.07;100.00
5413;BME280;2729;50.056;8.678;2023-06-10T04:21:11;100045.25;;;18.08;100.00
5413;BME280;2729;50.056;8.678;2023-06-10T04:23:37;100053.84;;;18.11;100.00
5413;BME280;2729;50.056;8.678;2023-06-10T04:26:04;100050.19;;;18.14;100.00
5413;BME280;2729;50.056;8.678;2023-06-10T04:28:31;100055.09;;;18.20;100.00
5413;BME280;2729;50.056;8.678;2023-06-10T04:30:58;100057.72;;;18.06;100.00
5413;BME280;2729;50.056;8.678;2023-06-10T04:33:24;100052.59;;;18.03;100.00
5413;BME280;2729;50.056;8.678;2023-06-10T04:35:50;100052.06;;;18.12;100.00
5413;BME280;2729;50.056;8.678;2023-06-10T04:38:19;100051.38;;;18.24;100.00
5413;BME280;2729;50.056;8.678;2023-06-10T04:40:44;100050.06;;;18.31;100.00
5413;BME280;2729;50.056;8.678;2023-06-10T04:43:13;100055.44;;;18.44;100.00
5413;BME280;2729;50.056;8.678;2023-06-10T04:45:39;100040.34;;;18.46;100.00
5413;BME280;2729;50.056;8.678;2023-06-10T04:48:06;100049.88;;;18.48;100.00
5413;BME280;2729;50.056;8.678;2023-06-10T04:50:33;100048.97;;;18.63;100.00
5413;BME280;2729;50.056;8.678;2023-06-10T04:52:59;100047.16;;;18.78;100.00
5413;BME280;2729;50.056;8.678;2023-06-10T04:55:25;100050.38;;;18.83;100.00
5413;BME280;2729;50.056;8.678;2023-06-10T04:57:51;100045.28;;;18.80;100.00
5413;BME280;2729;50.056;8.678;2023-06-10T05:00:17;100049.34;;;18.86;100.00
5413;BME280;2729;50.056;8.678;2023-06-10T05:02:43;100052.06;;;18.84;100.00
5413;BME280;2729;50.056;8.678;2023-06-10T05:05:10;100042.91;;;18.90;100.00
5413;BME280;2729;50.056;8.678;2023-06-10T05:07:37;100053.56;;;19.03;100.00
5413;BME280;2729;50.056;8.678;2023-06-10T05:10:03;100056.28;;;19.15;100.00
5413;BME280;2729;50.056;8.678;2023-06-10T05:12:29;100059.47;;;19.20;100.00
5413;BME280;2729;50.056;8.678;2023-06-10T05:14:54;100049.81;;;19.34;100.00
5413;BME280;2729;50.056;8.678;2023-06-10T05:17:20;100057.03;;;19.44;100.00
5413;BME280;2729;50.056;8.678;2023-06-10T05:19:46;100048.91;;;19.47;100.00
5413;BME280;2729;50.056;8.678;2023-06-10T05:22:12;100061.47;;;19.58;100.00
5413;BME280;2729;50.056;8.678;2023-06-10T05:24:39;100055.47;;;19.69;100.00
5413;BME280;2729;50.056;8.678;2023-06-10T05:27:05;100064.88;;;19.60;100.00
5413;BME280;2729;50.056;8.678;2023-06-10T05:29:33;100071.69;;;19.77;100.00
5413;BME280;2729;50.056;8.678;2023-06-10T05:31:59;100070.88;;;19.89;100.00
5413;BME280;2729;50.056;8.678;2023-06-10T05:34:29;100067.09;;;19.93;100.00
5413;BME280;2729;50.056;8.678;2023-06-10T05:36:55;100064.25;;;20.09;100.00
5413;BME280;2729;50.056;8.678;2023-06-10T05:39:21;100062.88;;;20.29;100.00
5413;BME280;2729;50.056;8.678;2023-06-10T05:41:47;100063.34;;;20.48;100.00
5413;BME280;2729;50.056;8.678;2023-06-10T05:44:13;100066.97;;;20.47;100.00
5413;BME280;2729;50.056;8.678;2023-06-10T05:46:39;100070.47;;;20.60;100.00
5413;BME280;2729;50.056;8.678;2023-06-10T05:49:05;100067.38;;;20.66;100.00
5413;BME280;2729;50.056;8.678;2023-06-10T05:51:31;100065.78;;;20.76;100.00
5413;BME280;2729;50.056;8.678;2023-06-10T05:53:57;100073.53;;;20.79;100.00
5413;BME280;2729;50.056;8.678;2023-06-10T05:56:23;100070.00;;;21.04;100.00
5413;BME280;2729;50.056;8.678;2023-06-10T05:58:51;100069.47;;;21.12;100.00
5413;BME280;2729;50.056;8.678;2023-06-10T06:01:17;100076.94;;;21.43;100.00
5413;BME280;2729;50.056;8.678;2023-06-10T06:03:43;100065.56;;;21.41;100.00
5413;BME280;2729;50.056;8.678;2023-06-10T06:08:57;100077.28;;;21.63;100.00
5413;BME280;2729;50.056;8.678;2023-06-10T06:11:22;100070.19;;;21.74;92.70
5413;BME280;2729;50.056;8.678;2023-06-10T06:13:48;100066.75;;;21.85;92.13
5413;BME280;2729;50.056;8.678;2023-06-10T06:16:14;100060.00;;;21.92;87.58
5413;BME280;2729;50.056;8.678;2023-06-10T06:18:42;100065.94;;;21.96;100.00
5413;BME280;2729;50.056;8.678;2023-06-10T06:21:08;100068.16;;;21.78;89.25
5413;BME280;2729;50.056;8.678;2023-06-10T06:23:34;100065.81;;;21.97;83.48
5413;BME280;2729;50.056;8.678;2023-06-10T06:26:00;100064.84;;;21.98;82.30
5413;BME280;2729;50.056;8.678;2023-06-10T06:28:26;100065.78;;;22.21;81.44
5413;BME280;2729;50.056;8.678;2023-06-10T06:30:55;100063.75;;;22.25;81.18
5413;BME280;2729;50.056;8.678;2023-06-10T06:33:21;100060.25;;;22.24;80.86
5413;BME280;2729;50.056;8.678;2023-06-10T06:35:47;100061.38;;;22.55;81.60
5413;BME280;2729;50.056;8.678;2023-06-10T06:38:13;100058.22;;;22.50;80.51
5413;BME280;2729;50.056;8.678;2023-06-10T06:40:39;100069.59;;;22.63;79.87
5413;BME280;2729;50.056;8.678;2023-06-10T06:43:05;100074.81;;;22.65;77.58
5413;BME280;2729;50.056;8.678;2023-06-10T06:45:50;100071.91;;;22.79;78.52
5413;BME280;2729;50.056;8.678;2023-06-10T06:48:16;100075.22;;;22.83;77.41
5413;BME280;2729;50.056;8.678;2023-06-10T06:50:42;100082.22;;;22.95;75.07
5413;BME280;2729;50.056;8.678;2023-06-10T06:53:08;100075.44;;;22.80;75.23
5413;BME280;2729;50.056;8.678;2023-06-10T06:55:34;100074.47;;;22.92;76.24
5413;BME280;2729;50.056;8.678;2023-06-10T06:58:00;100077.97;;;23.03;75.65
5413;BME280;2729;50.056;8.678;2023-06-10T07:00:28;100082.28;;;23.38;76.54
5413;BME280;2729;50.056;8.678;2023-06-10T07:02:54;100081.44;;;23.49;79.21
5413;BME280;2729;50.056;8.678;2023-06-10T07:05:21;100079.88;;;23.24;73.98
5413;BME280;2729;50.056;8.678;2023-06-10T07:07:46;100079.88;;;23.35;74.47
5413;BME280;2729;50.056;8.678;2023-06-10T07:10:12;100080.97;;;23.44;72.86
5413;BME280;2729;50.056;8.678;2023-06-10T07:12:40;100078.66;;;23.61;74.39
5413;BME280;2729;50.056;8.678;2023-06-10T07:15:06;100079.75;;;23.59;73.92
5413;BME280;2729;50.056;8.678;2023-06-10T07:17:32;100077.56;;;23.64;75.82
5413;BME280;2729;50.056;8.678;2023-06-10T07:20:00;100085.50;;;23.75;74.68
5413;BME280;2729;50.056;8.678;2023-06-10T07:22:26;100080.09;;;23.65;74.12
5413;BME280;2729;50.056;8.678;2023-06-10T07:24:52;100076.94;;;23.92;75.96
5413;BME280;2729;50.056;8.678;2023-06-10T07:27:20;100082.44;;;24.12;75.38
5413;BME280;2729;50.056;8.678;2023-06-10T07:29:46;100080.66;;;24.01;72.21
5413;BME280;2729;50.056;8.678;2023-06-10T07:32:12;100088.53;;;24.02;70.94
5413;BME280;2729;50.056;8.678;2023-06-10T07:34:38;100079.69;;;24.02;72.77
5413;BME280;2729;50.056;8.678;2023-06-10T07:37:04;100085.81;;;24.14;71.51
5413;BME280;2729;50.056;8.678;2023-06-10T07:39:30;100087.72;;;24.23;71.80
5413;BME280;2729;50.056;8.678;2023-06-10T07:41:56;100094.56;;;24.36;71.31
5413;BME280;2729;50.056;8.678;2023-06-10T07:44:23;100086.31;;;24.40;70.22
5413;BME280;2729;50.056;8.678;2023-06-10T07:46:50;100087.00;;;24.62;69.26
5413;BME280;2729;50.056;8.678;2023-06-10T07:49:16;100091.59;;;24.81;69.34
5413;BME280;2729;50.056;8.678;2023-06-10T07:51:42;100090.38;;;24.64;67.91
5413;BME280;2729;50.056;8.678;2023-06-10T07:54:08;100080.69;;;24.63;67.60
5413;BME280;2729;50.056;8.678;2023-06-10T07:56:34;100085.88;;;24.95;68.36
5413;BME280;2729;50.056;8.678;2023-06-10T07:59:00;100091.28;;;24.75;67.39
5413;BME280;2729;50.056;8.678;2023-06-10T08:01:26;100085.50;;;25.00;68.49
5413;BME280;2729;50.056;8.678;2023-06-10T08:03:52;100081.75;;;24.82;69.32
5413;BME280;2729;50.056;8.678;2023-06-10T08:06:18;100086.13;;;24.83;67.80
5413;BME280;2729;50.056;8.678;2023-06-10T08:08:44;100081.94;;;24.90;67.79
5413;BME280;2729;50.056;8.678;2023-06-10T08:11:12;100082.97;;;24.98;68.26
5413;BME280;2729;50.056;8.678;2023-06-10T08:13:38;100082.13;;;24.98;68.31
5413;BME280;2729;50.056;8.678;2023-06-10T08:16:04;100083.03;;;25.18;68.18
5413;BME280;2729;50.056;8.678;2023-06-10T08:18:30;100086.03;;;25.34;68.40
5413;BME280;2729;50.056;8.678;2023-06-10T08:20:55;100082.53;;;25.43;66.94
5413;BME280;2729;50.056;8.678;2023-06-10T08:23:21;100084.81;;;25.57;64.83
5413;BME280;2729;50.056;8.678;2023-06-10T08:25:47;100085.22;;;25.53;65.34
5413;BME280;2729;50.056;8.678;2023-06-10T08:28:13;100078.53;;;25.68;67.11
5413;BME280;2729;50.056;8.678;2023-06-10T08:30:39;100087.94;;;25.72;68.43
5413;BME280;2729;50.056;8.678;2023-06-10T08:33:06;100080.50;;;25.85;66.09
5413;BME280;2729;50.056;8.678;2023-06-10T08:35:32;100080.22;;;25.79;67.01
5413;BME280;2729;50.056;8.678;2023-06-10T08:37:58;100084.44;;;25.91;67.47
5413;BME280;2729;50.056;8.678;2023-06-10T08:40:24;100093.75;;;26.06;64.08
5413;BME280;2729;50.056;8.678;2023-06-10T08:43:04;100083.72;;;25.99;62.55
5413;BME280;2729;50.056;8.678;2023-06-10T08:45:31;100082.50;;;26.03;63.13
5413;BME280;2729;50.056;8.678;2023-06-10T08:48:03;100081.91;;;26.28;63.16
5413;BME280;2729;50.056;8.678;2023-06-10T08:50:36;100076.56;;;26.28;63.12
5413;BME280;2729;50.056;8.678;2023-06-10T08:53:05;100073.31;;;26.34;65.37
5413;BME280;2729;50.056;8.678;2023-06-10T08:55:38;100080.34;;;26.25;64.78
5413;BME280;2729;50.056;8.678;2023-06-10T08:58:04;100071.50;;;26.15;64.40
5413;BME280;2729;50.056;8.678;2023-06-10T09:00:31;100066.53;;;26.30;64.96
5413;BME280;2729;50.056;8.678;2023-06-10T09:02:58;100070.50;;;26.45;64.85
5413;BME280;2729;50.056;8.678;2023-06-10T09:05:26;100066.69;;;26.38;62.23
5413;BME280;2729;50.056;8.678;2023-06-10T09:07:53;100061.94;;;26.32;63.69
5413;BME280;2729;50.056;8.678;2023-06-10T09:10:20;100062.25;;;26.66;60.95
5413;BME280;2729;50.056;8.678;2023-06-10T09:12:46;100059.19;;;26.88;60.71
5413;BME280;2729;50.056;8.678;2023-06-10T09:15:12;100061.31;;;26.85;61.08
5413;BME280;2729;50.056;8.678;2023-06-10T09:17:40;100051.47;;;26.48;63.43
5413;BME280;2729;50.056;8.678;2023-06-10T09:20:07;100055.66;;;26.61;63.41
5413;BME280;2729;50.056;8.678;2023-06-10T09:22:35;100052.31;;;26.86;62.88
5413;BME280;2729;50.056;8.678;2023-06-10T09:25:06;100045.16;;;26.77;63.20
5413;BME280;2729;50.056;8.678;2023-06-10T09:27:33;100051.72;;;26.92;62.40
5413;BME280;2729;50.056;8.678;2023-06-10T09:30:10;100061.97;;;27.06;60.41
5413;BME280;2729;50.056;8.678;2023-06-10T09:32:38;100052.84;;;26.99;60.26
5413;BME280;2729;50.056;8.678;2023-06-10T09:35:12;100052.44;;;26.84;60.45
5413;BME280;2729;50.056;8.678;2023-06-10T09:37:38;100046.66;;;26.89;61.01
5413;BME280;2729;50.056;8.678;2023-06-10T09:40:07;100058.88;;;27.29;59.32
5413;BME280;2729;50.056;8.678;2023-06-10T09:42:36;100054.31;;;27.11;60.31
5413;BME280;2729;50.056;8.678;2023-06-10T09:45:04;100047.72;;;27.51;57.82
5413;BME280;2729;50.056;8.678;2023-06-10T09:47:30;100052.16;;;27.42;58.45
5413;BME280;2729;50.056;8.678;2023-06-10T09:49:56;100045.94;;;27.60;57.47
5413;BME280;2729;50.056;8.678;2023-06-10T09:52:27;100047.84;;;27.32;59.11
5413;BME280;2729;50.056;8.678;2023-06-10T09:54:55;100050.72;;;27.83;56.73
5413;BME280;2729;50.056;8.678;2023-06-10T09:57:25;100047.59;;;27.88;53.85
5413;BME280;2729;50.056;8.678;2023-06-10T09:59:54;100043.19;;;28.05;56.11
5413;BME280;2729;50.056;8.678;2023-06-10T10:02:21;100044.44;;;27.75;56.36
5413;BME280;2729;50.056;8.678;2023-06-10T10:04:47;100030.25;;;27.82;56.52
5413;BME280;2729;50.056;8.678;2023-06-10T10:07:14;100037.06;;;27.95;55.45
5413;BME280;2729;50.056;8.678;2023-06-10T10:09:41;100027.84;;;28.15;54.57
5413;BME280;2729;50.056;8.678;2023-06-10T10:12:11;100033.34;;;28.13;54.74
5413;BME280;2729;50.056;8.678;2023-06-10T10:14:38;100021.59;;;28.32;52.28
5413;BME280;2729;50.056;8.678;2023-06-10T10:17:07;100017.66;;;28.01;54.15
5413;BME280;2729;50.056;8.678;2023-06-10T10:19:43;100019.72;;;28.07;54.99
5413;BME280;2729;50.056;8.678;2023-06-10T10:22:15;100009.97;;;28.24;53.89
5413;BME280;2729;50.056;8.678;2023-06-10T10:24:49;100012.59;;;27.98;55.54
5413;BME280;2729;50.056;8.678;2023-06-10T10:27:18;100007.47;;;28.04;55.40
5413;BME280;2729;50.056;8.678;2023-06-10T10:29:48;99998.75;;;28.28;53.63
5413;BME280;2729;50.056;8.678;2023-06-10T10:32:16;99995.16;;;28.19;55.12
5413;BME280;2729;50.056;8.678;2023-06-10T10:34:49;100005.06;;;28.45;54.28
5413;BME280;2729;50.056;8.678;2023-06-10T10:37:17;100010.91;;;28.40;53.59
5413;BME280;2729;50.056;8.678;2023-06-10T10:39:44;100005.25;;;28.77;51.51
5413;BME280;2729;50.056;8.678;2023-06-10T10:42:10;100010.28;;;28.46;52.64
5413;BME280;2729;50.056;8.678;2023-06-10T10:44:37;100007.22;;;28.67;52.30
5413;BME280;2729;50.056;8.678;2023-06-10T10:47:07;100005.19;;;28.35;53.62
5413;BME280;2729;50.056;8.678;2023-06-10T10:49:35;99998.47;;;28.65;47.51
5413;BME280;2729;50.056;8.678;2023-06-10T10:52:01;100007.25;;;27.98;50.91
5413;BME280;2729;50.056;8.678;2023-06-10T10:54:34;100010.25;;;27.95;51.71
5413;BME280;2729;50.056;8.678;2023-06-10T10:57:20;100008.34;;;28.13;50.99
5413;BME280;2729;50.056;8.678;2023-06-10T10:59:57;100000.22;;;28.23;51.84
5413;BME280;2729;50.056;8.678;2023-06-10T11:05:00;99987.56;;;28.67;48.05
5413;BME280;2729;50.056;8.678;2023-06-10T11:07:26;99991.19;;;28.06;52.22
5413;BME280;2729;50.056;8.678;2023-06-10T11:10:09;99992.06;;;28.92;44.78
5413;BME280;2729;50.056;8.678;2023-06-10T11:12:49;99981.72;;;29.22;43.46
5413;BME280;2729;50.056;8.678;2023-06-10T11:15:26;99973.13;;;29.10;46.32
5413;BME280;2729;50.056;8.678;2023-06-10T11:18:22;99983.41;;;29.31;44.58
5413;BME280;2729;50.056;8.678;2023-06-10T11:29:05;99970.53;;;29.51;43.27
5413;BME280;2729;50.056;8.678;2023-06-10T11:31:43;99964.97;;;29.52;44.00
5413;BME280;2729;50.056;8.678;2023-06-10T11:34:09;99973.88;;;29.77;42.49
5413;BME280;2729;50.056;8.678;2023-06-10T11:36:38;99970.13;;;29.21;46.74
5413;BME280;2729;50.056;8.678;2023-06-10T11:39:06;99970.19;;;29.78;44.36
5413;BME280;2729;50.056;8.678;2023-06-10T11:41:36;99966.31;;;30.05;42.09
5413;BME280;2729;50.056;8.678;2023-06-10T11:44:05;99962.59;;;29.41;44.95
5413;BME280;2729;50.056;8.678;2023-06-10T11:46:33;99964.69;;;28.97;47.37
5413;BME280;2729;50.056;8.678;2023-06-10T11:49:00;99970.38;;;29.52;43.27
5413;BME280;2729;50.056;8.678;2023-06-10T11:51:31;99970.19;;;29.62;39.61
5413;BME280;2729;50.056;8.678;2023-06-10T11:53:58;99972.03;;;29.77;41.65
5413;BME280;2729;50.056;8.678;2023-06-10T11:56:28;99970.47;;;30.32;39.09
5413;BME280;2729;50.056;8.678;2023-06-10T11:58:55;99968.84;;;29.82;39.48
5413;BME280;2729;50.056;8.678;2023-06-10T12:01:22;99973.06;;;29.68;40.73
5413;BME280;2729;50.056;8.678;2023-06-10T12:03:59;99971.38;;;29.59;41.08
5413;BME280;2729;50.056;8.678;2023-06-10T12:06:26;99962.97;;;29.54;43.66
5413;BME280;2729;50.056;8.678;2023-06-10T12:08:53;99960.22;;;30.27;40.10
5413;BME280;2729;50.056;8.678;2023-06-10T12:11:19;99957.44;;;30.60;38.92
5413;BME280;2729;50.056;8.678;2023-06-10T12:13:47;99960.25;;;30.66;38.35
5413;BME280;2729;50.056;8.678;2023-06-10T12:16:16;99946.72;;;30.35;38.90
5413;BME280;2729;50.056;8.678;2023-06-10T12:18:46;99948.44;;;30.20;40.09
5413;BME280;2729;50.056;8.678;2023-06-10T12:21:24;99953.53;;;30.07;39.33
5413;BME280;2729;50.056;8.678;2023-06-10T12:24:10;99949.97;;;29.98;40.66
5413;BME280;2729;50.056;8.678;2023-06-10T12:26:39;99943.09;;;30.04;41.29
5413;BME280;2729;50.056;8.678;2023-06-10T12:29:15;99948.50;;;29.71;41.82
5413;BME280;2729;50.056;8.678;2023-06-10T12:31:54;99948.16;;;29.50;43.29
5413;BME280;2729;50.056;8.678;2023-06-10T12:34:34;99955.06;;;29.53;43.40
5413;BME280;2729;50.056;8.678;2023-06-10T12:37:02;99945.75;;;29.06;45.66
5413;BME280;2729;50.056;8.678;2023-06-10T12:39:31;99947.28;;;29.17;43.29
5413;BME280;2729;50.056;8.678;2023-06-10T12:41:57;99942.06;;;29.32;42.64
5413;BME280;2729;50.056;8.678;2023-06-10T12:44:30;99945.78;;;29.31;42.76
5413;BME280;2729;50.056;8.678;2023-06-10T12:46:57;99943.09;;;29.39;40.89
5413;BME280;2729;50.056;8.678;2023-06-10T12:49:23;99945.78;;;30.04;41.31
5413;BME280;2729;50.056;8.678;2023-06-10T12:51:49;99945.78;;;29.88;42.63
5413;BME280;2729;50.056;8.678;2023-06-10T12:54:15;99935.91;;;29.56;44.85
5413;BME280;2729;50.056;8.678;2023-06-10T12:56:40;99928.72;;;30.75;39.47
5413;BME280;2729;50.056;8.678;2023-06-10T12:59:06;99924.44;;;31.12;36.90
5413;BME280;2729;50.056;8.678;2023-06-10T13:01:32;99912.94;;;31.49;37.29
5413;BME280;2729;50.056;8.678;2023-06-10T13:03:59;99927.94;;;29.22;43.87
5413;BME280;2729;50.056;8.678;2023-06-10T13:06:25;99931.59;;;30.74;39.79
5413;BME280;2729;50.056;8.678;2023-06-10T13:08:51;99914.19;;;30.84;36.61
5413;BME280;2729;50.056;8.678;2023-06-10T13:11:19;99922.97;;;30.78;40.71
5413;BME280;2729;50.056;8.678;2023-06-10T13:13:45;99923.53;;;31.50;39.42
5413;BME280;2729;50.056;8.678;2023-06-10T13:16:11;99913.13;;;30.62;40.25
5413;BME280;2729;50.056;8.678;2023-06-10T13:18:37;99917.00;;;30.52;41.23
5413;BME280;2729;50.056;8.678;2023-06-10T13:21:04;99918.97;;;30.27;40.72
5413;BME280;2729;50.056;8.678;2023-06-10T13:23:30;99917.38;;;29.77;40.93
5413;BME280;2729;50.056;8.678;2023-06-10T13:25:57;99921.94;;;29.68;41.78
5413;BME280;2729;50.056;8.678;2023-06-10T13:28:23;99920.91;;;29.69;40.48